createdAt,value
2023-02-27T00:01:44.418Z,-2.04
2023-02-27T00:06:45.652Z,-2.08
2023-02-27T00:11:47.766Z,-2.1
2023-02-27T00:16:49.596Z,-2.27
2023-02-27T00:21:50.898Z,-2.26
2023-02-27T00:26:52.755Z,-2.2
2023-02-27T00:31:54.266Z,-2.14
2023-02-27T00:36:55.497Z,-2.15
2023-02-27T00:41:56.760Z,-2.21
2023-02-27T00:46:58.891Z,-2.24
2023-02-27T00:52:00.279Z,-2.22
2023-02-27T00:57:01.976Z,-2.22
2023-02-27T01:02:04.177Z,-2.3
2023-02-27T01:07:05.797Z,-2.26
2023-02-27T01:12:07.365Z,-2.2
2023-02-27T01:17:08.633Z,-2.13
2023-02-27T01:22:10.475Z,-2.17
2023-02-27T01:27:12.459Z,-2.18
2023-02-27T01:32:13.962Z,-2.11
2023-02-27T01:37:15.950Z,-2.03
2023-02-27T01:42:17.636Z,-2.08
2023-02-27T01:47:19.483Z,-2.09
2023-02-27T01:52:21.403Z,-2.09
2023-02-27T01:57:23.578Z,-2.02
2023-02-27T02:02:25.129Z,-2.13
2023-02-27T02:07:26.943Z,-2.11
2023-02-27T02:12:28.472Z,-2
2023-02-27T02:17:29.892Z,-1.87
2023-02-27T02:22:31.099Z,-1.99
2023-02-27T02:27:32.689Z,-2.04
2023-02-27T02:32:34.033Z,-1.99
2023-02-27T02:37:36.124Z,-1.91
2023-02-27T02:42:37.759Z,-1.88
2023-02-27T02:47:39.367Z,-1.97
2023-02-27T02:52:41.344Z,-1.95
2023-02-27T02:57:42.646Z,-1.9
2023-02-27T03:02:44.879Z,-1.87
2023-02-27T03:07:46.044Z,-2
2023-02-27T03:12:47.699Z,-2.03
2023-02-27T03:17:49.245Z,-1.95
2023-02-27T03:22:50.725Z,-1.98
2023-02-27T03:27:52.038Z,-2.07
2023-02-27T03:32:53.643Z,-2.14
2023-02-27T03:37:55.383Z,-2.08
2023-02-27T03:42:56.837Z,-2.03
2023-02-27T03:47:58.958Z,-2.05
2023-02-27T03:53:01.104Z,-2.13
2023-02-27T03:58:02.787Z,-2.08
2023-02-27T04:03:04.985Z,-2.04
2023-02-27T04:08:06.680Z,-2.09
2023-02-27T04:13:08.085Z,-2.15
2023-02-27T04:18:09.573Z,-2.1
2023-02-27T04:23:10.931Z,-2.08
2023-02-27T04:28:13.026Z,-2.05
2023-02-27T04:33:15.194Z,-2.13
2023-02-27T04:38:16.617Z,-2.22
2023-02-27T04:43:18.386Z,-2.17
2023-02-27T04:48:30.495Z,-2.19
2023-02-27T04:53:21.864Z,-2.2
2023-02-27T04:58:25.270Z,-2.33
2023-02-27T05:03:25.262Z,-2.28
2023-02-27T05:08:26.676Z,-2.2
2023-02-27T05:13:28.262Z,-2.23
2023-02-27T05:18:29.613Z,-2.33
2023-02-27T05:23:31.417Z,-2.27
2023-02-27T05:28:32.852Z,-2.27
2023-02-27T05:33:34.677Z,-2.3
2023-02-27T05:38:36.182Z,-2.33
2023-02-27T05:43:37.856Z,-2.41
2023-02-27T05:48:46.875Z,-2.39
2023-02-27T05:53:40.365Z,-2.3
2023-02-27T05:58:42.176Z,-2.39
2023-02-27T06:03:44.181Z,-2.47
2023-02-27T06:08:45.584Z,-2.41
2023-02-27T06:13:47.427Z,-2.31
2023-02-27T06:18:58.831Z,-2.28
2023-02-27T06:23:50.592Z,-2.33
2023-02-27T06:28:52.433Z,-2.27
2023-02-27T06:33:54.389Z,-2.17
2023-02-27T06:38:55.967Z,-2.13
2023-02-27T06:43:57.732Z,-2.11
2023-02-27T06:48:59.294Z,-2.04
2023-02-27T06:54:00.743Z,-1.84
2023-02-27T06:59:02.406Z,-1.75
2023-02-27T07:04:04.189Z,-1.81
2023-02-27T07:09:06.644Z,-1.8
2023-02-27T07:14:07.094Z,-1.64
2023-02-27T07:19:08.951Z,-1.58
2023-02-27T07:24:10.729Z,-1.54
2023-02-27T07:29:12.148Z,-1.54
2023-02-27T07:34:13.549Z,-1.43
2023-02-27T07:39:15.391Z,-1.32
2023-02-27T07:44:17.292Z,-1.22
2023-02-27T07:49:18.651Z,-1.35
2023-02-27T07:54:20.293Z,-1.25
2023-02-27T07:59:21.882Z,-1.09
2023-02-27T08:04:33.901Z,-1.1
2023-02-27T08:09:26.042Z,-1.08
2023-02-27T08:14:28.100Z,-0.92
2023-02-27T08:19:29.729Z,-0.79
2023-02-27T08:24:31.305Z,-0.63
2023-02-27T08:29:32.826Z,-0.77
2023-02-27T08:34:34.894Z,-1
2023-02-27T08:39:36.237Z,-0.95
2023-02-27T08:44:37.822Z,-0.8
2023-02-27T08:49:38.950Z,-0.74
2023-02-27T08:54:40.673Z,-0.57
2023-02-27T08:59:42.190Z,-0.47
2023-02-27T09:04:44.275Z,-0.18
2023-02-27T09:09:45.890Z,0.08
2023-02-27T09:14:47.826Z,0.13
2023-02-27T09:24:58.507Z,0.4
2023-02-27T10:00:04.319Z,-0.23
2023-02-27T10:05:05.818Z,-0.11
2023-02-27T10:15:09.034Z,-0.19
2023-02-27T10:25:24.971Z,-0.04
2023-02-27T10:35:16.419Z,-0.19
2023-02-27T10:40:18.295Z,-0.04
2023-02-27T10:45:20.200Z,0.15
2023-02-27T10:50:21.947Z,0.19
2023-02-27T10:55:23.315Z,0.15
2023-02-27T11:00:25.178Z,0.25
2023-02-27T11:05:26.560Z,0.42
2023-02-27T11:10:28.529Z,0.35
2023-02-27T11:15:30.125Z,0.1
2023-02-27T11:20:31.411Z,0.3
2023-02-27T11:25:33.059Z,0.37
2023-02-27T11:30:35.103Z,0.44
2023-02-27T11:35:36.851Z,0.41
2023-02-27T11:40:38.867Z,0.41
2023-02-27T11:46:05.385Z,0.33
2023-02-27T11:50:42.477Z,0.39
2023-02-27T11:55:44.598Z,0.44
2023-02-27T12:00:46.718Z,0.29
2023-02-27T12:05:47.900Z,0.27
2023-02-27T12:11:04.575Z,0.31
2023-02-27T12:15:57.343Z,0.27
2023-02-27T12:20:58.857Z,0.33
2023-02-27T12:26:00.258Z,0.29
2023-02-27T12:31:02.498Z,0.35
2023-02-27T12:36:03.746Z,0.3
2023-02-27T12:41:05.135Z,0.42
2023-02-27T12:46:06.534Z,0.64
2023-02-27T12:51:08.237Z,0.65
2023-02-27T12:56:10.066Z,0.5
2023-02-27T13:01:11.575Z,0.54
2023-02-27T13:06:12.926Z,0.72
2023-02-27T13:11:14.873Z,0.73
2023-02-27T13:16:16.463Z,0.69
2023-02-27T13:21:17.626Z,0.58
2023-02-27T13:26:18.890Z,0.55
2023-02-27T13:31:21.067Z,0.68
2023-02-27T13:36:24.420Z,0.51
2023-02-27T13:41:24.626Z,0.67
2023-02-27T13:46:26.771Z,0.61
2023-02-27T13:51:28.479Z,0.52
2023-02-27T13:56:29.962Z,0.65
2023-02-27T14:01:32.494Z,0.58
2023-02-27T14:06:34.270Z,0.58
2023-02-27T14:11:35.483Z,0.72
2023-02-27T14:16:37.339Z,0.55
2023-02-27T14:21:38.564Z,0.39
2023-02-27T14:26:40.121Z,0.46
2023-02-27T14:31:41.270Z,0.55
2023-02-27T14:36:42.741Z,0.49
2023-02-27T14:41:44.224Z,0.55
2023-02-27T14:46:45.993Z,0.47
2023-02-27T14:51:48.190Z,0.41
2023-02-27T14:56:49.970Z,0.3
2023-02-27T15:01:54.465Z,0.33
2023-02-27T15:06:53.401Z,0.41
2023-02-27T15:12:03.345Z,0.44
2023-02-27T15:16:56.753Z,0.34
2023-02-27T15:21:58.490Z,0.39
2023-02-27T15:27:10.148Z,0.4
2023-02-27T15:32:01.629Z,0.4
2023-02-27T15:37:03.534Z,0.06
2023-02-27T15:42:04.651Z,-0.03
2023-02-27T15:47:06.747Z,-0.1
2023-02-27T15:52:08.681Z,-0.07
2023-02-27T15:57:15.772Z,-0.14
2023-02-27T16:02:12.248Z,-0.16
2023-02-27T16:07:13.890Z,-0.19
2023-02-27T16:12:15.421Z,-0.3
2023-02-27T16:17:16.683Z,-0.41
2023-02-27T16:22:18.238Z,-0.4
2023-02-27T16:27:19.527Z,-0.34
2023-02-27T16:32:21.244Z,-0.3
2023-02-27T16:37:22.740Z,-0.34
2023-02-27T16:42:24.170Z,-0.5
2023-02-27T16:47:26.233Z,-0.43
2023-02-27T16:52:28.031Z,-0.56
2023-02-27T16:57:29.573Z,-0.69
2023-02-27T17:02:31.016Z,-0.65
2023-02-27T17:07:33.185Z,-0.68
2023-02-27T17:12:34.875Z,-0.68
2023-02-27T17:17:36.812Z,-0.76
2023-02-27T17:22:38.693Z,-0.77
2023-02-27T17:27:39.967Z,-0.66
2023-02-27T17:32:41.553Z,-0.62
2023-02-27T17:37:43.012Z,-0.65
2023-02-27T17:42:45.026Z,-0.71
2023-02-27T17:47:46.916Z,-0.71
2023-02-27T17:52:49.504Z,-0.77
2023-02-27T17:57:50.249Z,-0.82
2023-02-27T18:02:52.293Z,-0.98
2023-02-27T18:07:55.520Z,-0.99
2023-02-27T18:12:56.183Z,-0.95
2023-02-27T18:17:58.254Z,-1.05
2023-02-27T18:22:59.490Z,-1.13
2023-02-27T18:28:01.014Z,-1.07
2023-02-27T18:33:09.124Z,-1.02
2023-02-27T18:38:04.015Z,-1.04
2023-02-27T18:43:05.784Z,-1.19
2023-02-27T18:48:07.329Z,-1.13
2023-02-27T18:53:09.262Z,-1.16
2023-02-27T18:58:11.027Z,-1.39
2023-02-27T19:03:13.119Z,-1.49
2023-02-27T19:08:14.696Z,-1.59
2023-02-27T19:13:16.332Z,-1.69
2023-02-27T19:18:17.925Z,-1.66
2023-02-27T19:23:19.951Z,-1.74
2023-02-27T19:28:22.073Z,-1.76
2023-02-27T19:33:23.838Z,-1.7
2023-02-27T19:38:25.736Z,-1.66
2023-02-27T19:43:27.378Z,-1.66
2023-02-27T19:48:28.680Z,-1.65
2023-02-27T19:53:30.552Z,-1.6
2023-02-27T19:58:32.525Z,-1.57
2023-02-27T20:03:34.692Z,-1.62
2023-02-27T20:08:36.220Z,-1.81
2023-02-27T20:13:47.707Z,-1.8
2023-02-27T20:18:41.397Z,-1.76
2023-02-27T20:23:40.717Z,-1.67
2023-02-27T20:28:41.962Z,-1.73
2023-02-27T20:33:43.194Z,-1.76
2023-02-27T20:38:45.077Z,-1.71
2023-02-27T20:43:47.126Z,-1.67
2023-02-27T20:48:49.166Z,-1.75
2023-02-27T20:53:50.954Z,-1.67
2023-02-27T20:58:52.920Z,-1.71
2023-02-27T21:03:54.439Z,-1.72
2023-02-27T21:08:56.219Z,-1.8
2023-02-27T21:13:57.733Z,-1.78
2023-02-27T21:18:59.590Z,-1.71
2023-02-27T21:24:01.131Z,-1.62
2023-02-27T21:29:02.663Z,-1.67
2023-02-27T21:34:04.150Z,-1.8
2023-02-27T21:39:05.752Z,-1.88
2023-02-27T21:44:07.529Z,-1.81
2023-02-27T21:49:09.328Z,-1.93
2023-02-27T21:54:11.370Z,-2.08
2023-02-27T21:59:12.521Z,-2.08
2023-02-27T22:04:14.372Z,-1.98
2023-02-27T22:09:15.925Z,-1.91
2023-02-27T22:14:17.272Z,-2.03
2023-02-27T22:19:18.656Z,-2.04
2023-02-27T22:24:20.112Z,-2
2023-02-27T22:29:21.669Z,-1.99
2023-02-27T22:34:23.297Z,-2
2023-02-27T22:39:24.752Z,-1.96
2023-02-27T22:44:26.741Z,-1.93
2023-02-27T22:49:28.184Z,-1.84
2023-02-27T22:54:30.038Z,-1.85
2023-02-27T22:59:31.260Z,-1.9
2023-02-27T23:14:36.455Z,-1.87
2023-02-27T23:19:38.206Z,-1.99
2023-02-27T23:24:39.743Z,-1.98
2023-02-27T23:29:41.579Z,-1.94
2023-02-27T23:34:49.263Z,-1.92
2023-02-27T23:39:45.115Z,-1.99
2023-02-27T23:44:46.472Z,-2.06
2023-02-27T23:54:50.155Z,-2.03
